createdAt,value
2023-01-29T00:02:21.490Z,53.12
2023-01-29T00:04:48.811Z,53.28
2023-01-29T00:07:15.752Z,53.33
2023-01-29T00:09:42.813Z,53.38
2023-01-29T00:12:10.163Z,53.36
2023-01-29T00:14:37.215Z,53.59
2023-01-29T00:17:04.365Z,53.67
2023-01-29T00:19:31.509Z,53.81
2023-01-29T00:21:58.559Z,53.78
2023-01-29T00:24:25.566Z,53.87
2023-01-29T00:26:52.657Z,53.95
2023-01-29T00:29:19.902Z,53.91
2023-01-29T00:31:47.069Z,54.04
2023-01-29T00:34:16.344Z,54.03
2023-01-29T00:36:45.244Z,54.16
2023-01-29T00:39:13.024Z,54.19
2023-01-29T00:41:58.789Z,54.22
2023-01-29T00:44:44.691Z,54.31
2023-01-29T00:47:31.089Z,54.29
2023-01-29T00:49:58.232Z,54.42
2023-01-29T00:52:25.885Z,54.39
2023-01-29T00:54:59.029Z,54.46
2023-01-29T00:57:29.001Z,54.54
2023-01-29T00:59:56.279Z,54.54
2023-01-29T01:02:42.548Z,54.54
2023-01-29T01:05:14.365Z,54.62
2023-01-29T01:07:43.004Z,54.62
2023-01-29T01:10:21.301Z,54.63
2023-01-29T01:12:51.342Z,54.76
2023-01-29T01:15:19.386Z,54.68
2023-01-29T01:17:46.741Z,54.66
2023-01-29T01:20:14.209Z,54.75
2023-01-29T01:22:41.449Z,54.78
2023-01-29T01:25:09.116Z,54.80
2023-01-29T01:27:41.309Z,54.81
2023-01-29T01:30:16.667Z,54.92
2023-01-29T01:32:43.984Z,54.94
2023-01-29T01:35:12.529Z,54.88
2023-01-29T01:37:39.604Z,54.91
2023-01-29T01:40:12.982Z,54.97
2023-01-29T01:42:40.510Z,55.06
2023-01-29T01:45:17.987Z,55.06
2023-01-29T01:47:56.424Z,55.11
2023-01-29T01:50:40.182Z,55.09
2023-01-29T01:53:11.076Z,54.99
2023-01-29T01:55:52.124Z,54.99
2023-01-29T01:58:27.459Z,54.96
2023-01-29T02:00:55.900Z,54.91
2023-01-29T02:03:43.171Z,54.80
2023-01-29T02:06:30.287Z,54.85
2023-01-29T02:09:32.145Z,54.82
2023-01-29T02:11:59.191Z,54.82
2023-01-29T02:14:27.051Z,54.75
2023-01-29T02:16:54.004Z,54.75
2023-01-29T02:20:05.671Z,54.71
2023-01-29T02:22:59.292Z,54.91
2023-01-29T02:25:55.917Z,54.94
2023-01-29T02:28:46.768Z,55.09
2023-01-29T02:31:33.850Z,55.15
2023-01-29T02:34:09.094Z,55.13
2023-01-29T02:37:01.501Z,55.11
2023-01-29T02:39:40.974Z,55.06
2023-01-29T02:42:25.415Z,55.04
2023-01-29T02:44:56.301Z,55.02
2023-01-29T02:47:28.218Z,55.05
2023-01-29T02:50:26.166Z,55.00
2023-01-29T02:53:09.343Z,54.98
2023-01-29T02:55:49.388Z,55.03
2023-01-29T02:58:35.770Z,54.92
2023-01-29T03:01:10.546Z,54.89
2023-01-29T03:03:49.723Z,54.89
2023-01-29T03:06:32.473Z,54.90
2023-01-29T03:09:04.918Z,54.73
2023-01-29T03:11:40.115Z,54.89
2023-01-29T03:14:17.054Z,54.85
2023-01-29T03:16:54.472Z,54.75
2023-01-29T03:19:42.735Z,54.82
2023-01-29T03:22:21.019Z,54.73
2023-01-29T03:25:11.153Z,54.79
2023-01-29T03:28:06.454Z,54.78
2023-01-29T03:31:02.429Z,54.77
2023-01-29T03:33:44.472Z,54.74
2023-01-29T03:36:38.221Z,54.66
2023-01-29T03:39:11.602Z,54.72
2023-01-29T03:41:47.832Z,54.72
2023-01-29T03:44:22.140Z,54.68
2023-01-29T03:46:57.505Z,54.65
2023-01-29T03:49:39.362Z,54.68
2023-01-29T03:52:20.708Z,54.74
2023-01-29T03:55:01.425Z,54.66
2023-01-29T03:57:42.149Z,54.67
2023-01-29T04:00:21.514Z,54.72
2023-01-29T04:03:21.099Z,54.68
2023-01-29T04:05:53.440Z,54.62
2023-01-29T04:08:29.418Z,54.70
2023-01-29T04:11:02.757Z,54.67
2023-01-29T04:13:33.885Z,54.64
2023-01-29T04:16:04.526Z,54.71
2023-01-29T04:18:55.020Z,54.66
2023-01-29T04:21:28.039Z,54.66
2023-01-29T04:23:55.019Z,54.67
2023-01-29T04:26:36.550Z,54.62
2023-01-29T04:29:22.987Z,54.65
2023-01-29T04:31:58.974Z,54.66
2023-01-29T04:34:28.694Z,54.65
2023-01-29T04:37:25.311Z,54.68
2023-01-29T04:40:00.042Z,54.78
2023-01-29T04:42:37.368Z,54.71
2023-01-29T04:45:16.888Z,54.66
2023-01-29T04:47:55.385Z,54.58
2023-01-29T04:50:36.495Z,54.72
2023-01-29T04:53:06.431Z,54.70
2023-01-29T04:55:40.681Z,54.73
2023-01-29T04:58:10.579Z,54.79
2023-01-29T05:00:46.996Z,54.68
2023-01-29T05:03:15.638Z,54.71
2023-01-29T05:05:46.298Z,54.77
2023-01-29T05:08:16.515Z,54.82
2023-01-29T05:10:43.660Z,54.84
2023-01-29T05:13:13.965Z,54.74
2023-01-29T05:15:48.002Z,54.79
2023-01-29T05:18:14.936Z,54.82
2023-01-29T05:20:44.573Z,54.78
2023-01-29T05:23:17.006Z,54.72
2023-01-29T05:25:45.624Z,54.78
2023-01-29T05:28:18.666Z,54.78
2023-01-29T05:30:48.974Z,54.77
2023-01-29T05:33:38.675Z,54.75
2023-01-29T05:36:07.000Z,54.79
2023-01-29T05:38:34.196Z,54.73
2023-01-29T05:41:01.096Z,54.80
2023-01-29T05:43:28.083Z,54.75
2023-01-29T05:46:00.474Z,54.82
2023-01-29T05:48:29.141Z,54.80
2023-01-29T05:51:04.236Z,54.77
2023-01-29T05:53:32.447Z,54.86
2023-01-29T05:56:02.663Z,54.78
2023-01-29T05:58:32.044Z,54.84
2023-01-29T06:00:59.201Z,54.80
2023-01-29T06:03:26.171Z,54.73
2023-01-29T06:05:53.052Z,54.76
2023-01-29T06:08:20.129Z,54.81
2023-01-29T06:10:47.300Z,54.72
2023-01-29T06:13:14.310Z,54.72
2023-01-29T06:15:42.058Z,54.77
2023-01-29T06:18:09.054Z,54.86
2023-01-29T06:20:37.109Z,54.78
2023-01-29T06:23:04.150Z,54.74
2023-01-29T06:25:31.196Z,54.69
2023-01-29T06:27:59.565Z,54.76
2023-01-29T06:30:28.770Z,54.79
2023-01-29T06:32:58.972Z,54.85
2023-01-29T06:35:26.260Z,54.98
2023-01-29T06:37:53.221Z,54.98
2023-01-29T06:40:20.687Z,55.02
2023-01-29T06:42:47.694Z,55.05
2023-01-29T06:45:14.853Z,55.04
2023-01-29T06:47:41.801Z,55.03
2023-01-29T06:50:09.387Z,55.06
2023-01-29T06:52:36.276Z,55.03
2023-01-29T06:55:03.489Z,55.00
2023-01-29T06:57:30.688Z,55.03
2023-01-29T06:59:57.724Z,54.98
2023-01-29T07:02:24.709Z,54.95
2023-01-29T07:04:51.667Z,55.03
2023-01-29T07:07:18.769Z,54.95
2023-01-29T07:09:46.101Z,54.90
2023-01-29T07:12:12.991Z,54.89
2023-01-29T07:14:40.136Z,54.94
2023-01-29T07:17:07.338Z,54.88
2023-01-29T07:19:34.645Z,54.88
2023-01-29T07:22:03.432Z,54.81
2023-01-29T07:24:30.547Z,54.88
2023-01-29T07:26:58.400Z,54.91
2023-01-29T07:29:25.676Z,54.88
2023-01-29T07:31:52.727Z,54.91
2023-01-29T07:34:19.841Z,54.93
2023-01-29T07:36:46.752Z,55.16
2023-01-29T07:39:13.764Z,55.17
2023-01-29T07:41:40.930Z,55.04
2023-01-29T07:44:15.854Z,55.15
2023-01-29T07:46:42.903Z,55.03
2023-01-29T07:49:10.068Z,55.04
2023-01-29T07:51:37.063Z,54.99
2023-01-29T07:54:04.352Z,55.05
2023-01-29T07:56:31.410Z,55.17
2023-01-29T07:58:58.552Z,55.19
2023-01-29T08:01:25.623Z,55.25
2023-01-29T08:03:53.099Z,55.30
2023-01-29T08:06:20.318Z,55.44
2023-01-29T08:08:47.249Z,55.39
2023-01-29T08:11:15.529Z,55.48
2023-01-29T08:13:42.574Z,55.38
2023-01-29T08:16:09.776Z,55.55
2023-01-29T08:18:38.215Z,55.58
2023-01-29T08:21:05.364Z,55.59
2023-01-29T08:23:32.556Z,55.62
2023-01-29T08:25:59.683Z,55.68
2023-01-29T08:28:26.917Z,55.73
2023-01-29T08:30:54.011Z,55.86
2023-01-29T08:33:29.901Z,55.90
2023-01-29T08:36:04.267Z,55.95
2023-01-29T08:38:31.277Z,55.94
2023-01-29T08:40:58.219Z,56.09
2023-01-29T08:43:25.281Z,56.05
2023-01-29T08:45:53.072Z,56.04
2023-01-29T08:48:20.075Z,56.10
2023-01-29T08:50:47.228Z,56.14
2023-01-29T08:53:14.167Z,56.09
2023-01-29T08:55:41.574Z,56.19
2023-01-29T08:58:11.137Z,56.27
2023-01-29T09:00:38.492Z,56.29
2023-01-29T09:03:08.156Z,56.33
2023-01-29T09:05:36.469Z,56.34
2023-01-29T09:08:03.934Z,56.30
2023-01-29T09:10:31.893Z,56.46
2023-01-29T09:12:58.950Z,56.57
2023-01-29T09:15:26.213Z,56.56
2023-01-29T09:17:54.024Z,56.62
2023-01-29T09:20:21.725Z,56.72
2023-01-29T09:22:49.895Z,56.75
2023-01-29T09:25:17.453Z,56.77
2023-01-29T09:27:44.708Z,56.73
2023-01-29T09:30:12.474Z,56.89
2023-01-29T09:32:55.092Z,56.85
2023-01-29T09:35:23.524Z,56.91
2023-01-29T09:37:51.633Z,56.91
2023-01-29T09:40:31.285Z,56.96
2023-01-29T09:43:04.697Z,57.22
2023-01-29T09:45:31.948Z,57.41
2023-01-29T09:48:02.937Z,57.49
2023-01-29T09:50:41.994Z,57.74
2023-01-29T09:53:12.017Z,57.62
2023-01-29T09:55:46.629Z,57.82
2023-01-29T09:58:32.537Z,58.08
2023-01-29T10:01:08.456Z,57.87
2023-01-29T10:04:09.949Z,57.83
2023-01-29T10:06:49.471Z,57.78
2023-01-29T10:09:19.343Z,57.47
2023-01-29T10:12:01.495Z,57.52
2023-01-29T10:14:44.585Z,57.48
2023-01-29T10:17:14.603Z,57.39
2023-01-29T10:19:41.680Z,57.30
2023-01-29T10:22:26.338Z,57.19
2023-01-29T10:25:10.437Z,57.00
2023-01-29T10:27:41.530Z,57.06
2023-01-29T10:30:29.486Z,56.93
2023-01-29T10:33:02.182Z,56.69
2023-01-29T10:35:50.486Z,56.62
2023-01-29T10:38:38.889Z,56.63
2023-01-29T10:41:12.956Z,56.56
2023-01-29T10:44:03.035Z,56.44
2023-01-29T10:46:44.213Z,56.28
2023-01-29T10:49:40.477Z,56.13
2023-01-29T10:52:11.485Z,56.10
2023-01-29T10:54:58.710Z,56.08
2023-01-29T10:57:40.805Z,55.96
2023-01-29T11:00:13.408Z,55.97
2023-01-29T11:02:48.949Z,56.19
2023-01-29T11:05:25.033Z,56.06
2023-01-29T11:08:05.473Z,56.10
2023-01-29T11:10:37.456Z,56.03
2023-01-29T11:13:05.586Z,55.96
2023-01-29T11:15:35.207Z,55.96
2023-01-29T11:18:04.090Z,55.95
2023-01-29T11:20:33.284Z,55.94
2023-01-29T11:23:00.525Z,55.92
2023-01-29T11:25:30.002Z,55.96
2023-01-29T11:28:00.683Z,56.00
2023-01-29T11:30:38.955Z,56.06
2023-01-29T11:33:24.362Z,55.83
2023-01-29T11:35:52.892Z,55.83
2023-01-29T11:38:22.940Z,55.90
2023-01-29T11:40:50.067Z,55.96
2023-01-29T11:43:33.772Z,55.86
2023-01-29T11:46:02.952Z,55.93
2023-01-29T11:48:41.829Z,55.77
2023-01-29T11:51:12.828Z,55.63
2023-01-29T11:53:45.725Z,55.77
2023-01-29T11:56:29.719Z,55.65
2023-01-29T11:58:58.405Z,55.57
2023-01-29T12:01:33.775Z,55.49
2023-01-29T12:04:01.605Z,55.47
2023-01-29T12:06:36.869Z,55.41
2023-01-29T12:09:11.331Z,55.01
2023-01-29T12:11:38.458Z,54.78
2023-01-29T12:14:26.486Z,54.71
2023-01-29T12:17:13.296Z,54.56
2023-01-29T12:20:06.328Z,54.42
2023-01-29T12:22:49.044Z,54.20
2023-01-29T12:25:37.365Z,54.29
2023-01-29T12:28:15.404Z,54.19
2023-01-29T12:31:00.621Z,54.01
2023-01-29T12:33:56.197Z,53.95
2023-01-29T12:36:44.246Z,53.90
2023-01-29T12:39:17.813Z,53.89
2023-01-29T12:41:58.006Z,53.75
2023-01-29T12:44:42.495Z,53.89
2023-01-29T12:47:32.062Z,53.78
2023-01-29T12:50:23.131Z,53.71
2023-01-29T12:53:19.365Z,53.72
2023-01-29T12:55:55.678Z,53.66
2023-01-29T12:58:29.060Z,53.59
2023-01-29T13:01:01.323Z,53.55
2023-01-29T13:03:41.085Z,53.46
2023-01-29T13:06:15.362Z,53.62
2023-01-29T13:08:50.193Z,53.54
2023-01-29T13:11:40.905Z,53.59
2023-01-29T13:14:29.770Z,53.62
2023-01-29T13:17:22.957Z,53.53
2023-01-29T13:20:00.503Z,53.52
2023-01-29T13:22:32.163Z,53.62
2023-01-29T13:25:05.169Z,53.69
2023-01-29T13:27:35.534Z,53.48
2023-01-29T13:30:03.675Z,53.55
2023-01-29T13:32:32.965Z,54.22
2023-01-29T13:35:14.880Z,54.02
2023-01-29T13:37:54.543Z,53.98
2023-01-29T13:40:35.756Z,54.10
2023-01-29T13:43:03.789Z,54.07
2023-01-29T13:45:43.942Z,54.24
2023-01-29T13:48:19.235Z,54.46
2023-01-29T13:50:47.609Z,54.24
2023-01-29T13:53:29.946Z,53.98
2023-01-29T13:56:29.731Z,53.83
2023-01-29T13:58:57.947Z,53.82
2023-01-29T14:01:49.412Z,53.75
2023-01-29T14:04:19.669Z,53.69
2023-01-29T14:06:53.057Z,53.55
2023-01-29T14:09:54.552Z,53.47
2023-01-29T14:12:22.010Z,53.51
2023-01-29T14:14:49.246Z,53.34
2023-01-29T14:17:18.400Z,53.35
2023-01-29T14:19:54.261Z,53.22
2023-01-29T14:22:24.639Z,53.35
2023-01-29T14:24:56.507Z,53.28
2023-01-29T14:27:28.413Z,53.42
2023-01-29T14:30:07.625Z,53.31
2023-01-29T14:32:34.892Z,53.34
2023-01-29T14:35:18.334Z,53.30
2023-01-29T14:37:49.661Z,53.35
2023-01-29T14:40:19.687Z,53.38
2023-01-29T14:42:55.555Z,53.34
2023-01-29T14:45:33.535Z,53.35
2023-01-29T14:48:10.835Z,53.43
2023-01-29T14:50:38.171Z,53.36
2023-01-29T14:53:12.094Z,53.40
2023-01-29T14:55:48.965Z,53.42
2023-01-29T14:58:26.313Z,53.52
2023-01-29T15:00:56.664Z,53.51
2023-01-29T15:03:32.671Z,53.48
2023-01-29T15:06:01.388Z,53.46
2023-01-29T15:09:02.700Z,53.49
2023-01-29T15:11:55.939Z,53.51
2023-01-29T15:14:33.160Z,53.54
2023-01-29T15:17:19.236Z,53.54
2023-01-29T15:19:48.777Z,53.52
2023-01-29T15:22:18.663Z,53.50
2023-01-29T15:24:48.362Z,53.50
2023-01-29T15:27:18.889Z,53.54
2023-01-29T15:30:00.258Z,53.42
2023-01-29T15:32:39.676Z,53.40
2023-01-29T15:35:11.609Z,53.45
2023-01-29T15:37:40.167Z,53.49
2023-01-29T15:40:16.129Z,53.45
2023-01-29T15:42:48.960Z,53.45
2023-01-29T15:45:42.176Z,53.40
2023-01-29T15:48:15.700Z,53.39
2023-01-29T15:50:43.837Z,53.42
2023-01-29T15:53:19.793Z,53.42
2023-01-29T15:55:47.972Z,53.44
2023-01-29T15:58:19.526Z,53.38
2023-01-29T16:00:55.787Z,53.26
2023-01-29T16:03:25.647Z,53.30
2023-01-29T16:05:53.751Z,53.36
2023-01-29T16:08:26.562Z,53.31
2023-01-29T16:10:56.970Z,53.30
2023-01-29T16:13:35.941Z,53.32
2023-01-29T16:16:05.259Z,53.32
2023-01-29T16:18:41.074Z,53.31
2023-01-29T16:21:26.493Z,53.32
2023-01-29T16:24:16.108Z,53.24
2023-01-29T16:26:47.109Z,53.25
2023-01-29T16:29:17.644Z,53.27
2023-01-29T16:31:47.854Z,53.25
2023-01-29T16:34:27.079Z,53.24
2023-01-29T16:36:55.348Z,53.21
2023-01-29T16:39:27.831Z,53.17
2023-01-29T16:42:11.045Z,53.16
2023-01-29T16:44:46.086Z,53.04
2023-01-29T16:47:16.201Z,53.04
2023-01-29T16:49:48.955Z,53.05
2023-01-29T16:52:28.434Z,53.13
2023-01-29T16:55:21.598Z,53.11
2023-01-29T16:57:54.377Z,53.17
2023-01-29T17:00:29.892Z,53.17
2023-01-29T17:03:03.615Z,53.15
2023-01-29T17:05:33.827Z,53.02
2023-01-29T17:08:00.833Z,53.12
2023-01-29T17:10:30.306Z,53.02
2023-01-29T17:13:03.634Z,53.12
2023-01-29T17:15:50.944Z,53.05
2023-01-29T17:18:20.604Z,53.07
2023-01-29T17:20:49.074Z,53.04
2023-01-29T17:23:16.878Z,53.06
2023-01-29T17:25:45.286Z,53.12
2023-01-29T17:28:17.760Z,53.12
2023-01-29T17:30:56.711Z,53.14
2023-01-29T17:33:32.454Z,53.12
2023-01-29T17:35:59.685Z,53.18
2023-01-29T17:38:26.955Z,53.16
2023-01-29T17:41:02.458Z,53.25
2023-01-29T17:43:29.519Z,53.22
2023-01-29T17:45:56.512Z,53.15
2023-01-29T17:48:29.031Z,53.25
2023-01-29T17:50:59.576Z,53.17
2023-01-29T17:53:44.778Z,53.28
2023-01-29T17:56:29.689Z,53.22
2023-01-29T17:58:57.452Z,53.17
2023-01-29T18:01:24.528Z,53.15
2023-01-29T18:03:51.663Z,53.18
2023-01-29T18:06:30.037Z,53.11
2023-01-29T18:08:57.460Z,53.21
2023-01-29T18:11:24.830Z,53.28
2023-01-29T18:13:52.200Z,53.34
2023-01-29T18:16:22.226Z,53.27
2023-01-29T18:18:50.683Z,53.23
2023-01-29T18:21:18.238Z,53.26
2023-01-29T18:23:45.282Z,53.19
2023-01-29T18:26:13.318Z,53.26
2023-01-29T18:28:43.678Z,53.23
2023-01-29T18:31:13.164Z,53.19
2023-01-29T18:33:41.113Z,53.19
2023-01-29T18:36:08.769Z,53.25
2023-01-29T18:38:35.867Z,53.19
2023-01-29T18:41:10.752Z,53.13
2023-01-29T18:43:39.190Z,53.16
2023-01-29T18:46:07.854Z,53.11
2023-01-29T18:48:35.232Z,53.08
2023-01-29T18:51:02.586Z,53.11
2023-01-29T18:53:29.847Z,53.15
2023-01-29T18:56:04.618Z,53.17
2023-01-29T18:58:36.108Z,53.15
2023-01-29T19:01:09.694Z,53.19
2023-01-29T19:03:38.486Z,53.18
2023-01-29T19:06:08.107Z,53.27
2023-01-29T19:08:35.801Z,53.22
2023-01-29T19:11:05.821Z,53.21
2023-01-29T19:13:33.243Z,53.21
2023-01-29T19:16:00.667Z,53.21
2023-01-29T19:18:29.176Z,53.27
2023-01-29T19:20:56.370Z,53.18
2023-01-29T19:23:23.373Z,53.20
2023-01-29T19:25:50.665Z,53.21
2023-01-29T19:28:17.813Z,53.22
2023-01-29T19:30:44.998Z,53.21
2023-01-29T19:33:12.180Z,53.20
2023-01-29T19:35:39.266Z,53.24
2023-01-29T19:38:06.930Z,53.22
2023-01-29T19:40:34.776Z,53.26
2023-01-29T19:43:01.844Z,53.24
2023-01-29T19:45:49.869Z,53.30
2023-01-29T19:48:21.683Z,53.27
2023-01-29T19:50:56.893Z,53.35
2023-01-29T19:53:24.794Z,53.42
2023-01-29T19:56:00.596Z,53.39
2023-01-29T19:58:28.388Z,53.31
2023-01-29T20:01:00.878Z,53.33
2023-01-29T20:03:29.455Z,53.29
2023-01-29T20:06:05.827Z,53.40
2023-01-29T20:08:34.407Z,53.41
2023-01-29T20:11:02.475Z,53.23
2023-01-29T20:13:29.452Z,53.21
2023-01-29T20:15:56.521Z,53.22
2023-01-29T20:18:27.025Z,53.29
2023-01-29T20:20:55.377Z,53.53
2023-01-29T20:23:36.661Z,53.58
2023-01-29T20:26:06.781Z,53.55
2023-01-29T20:28:34.888Z,53.57
2023-01-29T20:31:03.259Z,53.48
2023-01-29T20:33:30.890Z,53.49
2023-01-29T20:36:01.437Z,53.52
2023-01-29T20:38:31.845Z,53.50
2023-01-29T20:41:13.141Z,53.53
2023-01-29T20:43:40.717Z,53.59
2023-01-29T20:46:08.184Z,53.44
2023-01-29T20:48:36.065Z,53.42
2023-01-29T20:51:13.287Z,53.39
2023-01-29T20:53:41.252Z,53.36
2023-01-29T20:56:08.739Z,53.36
2023-01-29T20:58:36.782Z,53.33
2023-01-29T21:01:12.315Z,53.33
2023-01-29T21:03:40.989Z,53.40
2023-01-29T21:06:09.565Z,53.31
2023-01-29T21:08:37.837Z,53.23
2023-01-29T21:11:06.644Z,53.35
2023-01-29T21:13:36.649Z,53.24
2023-01-29T21:16:04.532Z,53.32
2023-01-29T21:18:32.470Z,53.29
2023-01-29T21:20:59.621Z,53.19
2023-01-29T21:23:26.758Z,53.10
2023-01-29T21:25:53.840Z,53.10
2023-01-29T21:28:23.732Z,53.05
2023-01-29T21:30:50.751Z,52.94
2023-01-29T21:33:17.832Z,53.00
2023-01-29T21:35:44.972Z,52.99
2023-01-29T21:38:12.337Z,52.79
2023-01-29T21:40:39.381Z,52.95
2023-01-29T21:43:12.547Z,52.94
2023-01-29T21:45:40.845Z,53.02
2023-01-29T21:48:09.636Z,53.04
2023-01-29T21:50:37.379Z,52.94
2023-01-29T21:53:05.022Z,52.96
2023-01-29T21:55:32.758Z,52.95
2023-01-29T21:58:00.552Z,52.87
2023-01-29T22:00:28.648Z,52.81
2023-01-29T22:02:55.819Z,52.81
2023-01-29T22:05:23.123Z,52.71
2023-01-29T22:07:50.525Z,52.76
2023-01-29T22:10:18.807Z,52.63
2023-01-29T22:12:46.779Z,52.57
2023-01-29T22:15:15.136Z,52.67
2023-01-29T22:17:42.613Z,52.55
2023-01-29T22:20:12.280Z,52.61
2023-01-29T22:22:39.571Z,52.54
2023-01-29T22:25:06.985Z,52.52
2023-01-29T22:27:34.352Z,52.51
2023-01-29T22:30:01.876Z,52.46
2023-01-29T22:32:29.321Z,52.41
2023-01-29T22:34:56.710Z,52.41
2023-01-29T22:37:25.015Z,52.43
2023-01-29T22:39:52.030Z,52.44
2023-01-29T22:42:20.876Z,52.42
2023-01-29T22:44:48.814Z,52.33
2023-01-29T22:47:16.115Z,52.29
2023-01-29T22:49:45.786Z,52.33
2023-01-29T22:52:14.079Z,52.32
2023-01-29T22:54:43.375Z,52.29
2023-01-29T22:57:13.301Z,52.31
2023-01-29T22:59:40.841Z,52.25
2023-01-29T23:02:08.532Z,52.11
2023-01-29T23:04:35.890Z,52.19
2023-01-29T23:07:03.547Z,52.08
2023-01-29T23:09:30.641Z,52.10
2023-01-29T23:11:57.598Z,52.09
2023-01-29T23:14:24.600Z,52.22
2023-01-29T23:16:51.672Z,52.27
2023-01-29T23:19:18.917Z,52.19
2023-01-29T23:21:45.904Z,52.27
2023-01-29T23:24:13.289Z,52.27
2023-01-29T23:26:58.929Z,52.23
2023-01-29T23:29:26.310Z,52.27
2023-01-29T23:31:53.306Z,52.30
2023-01-29T23:34:20.765Z,52.38
2023-01-29T23:36:47.811Z,52.37
2023-01-29T23:39:14.904Z,52.40
2023-01-29T23:41:42.257Z,52.35
2023-01-29T23:44:09.304Z,52.28
2023-01-29T23:46:36.407Z,52.27
2023-01-29T23:49:03.797Z,52.23
2023-01-29T23:51:31.013Z,52.42
2023-01-29T23:53:59.090Z,52.20
2023-01-29T23:56:26.416Z,52.35
2023-01-29T23:58:57.797Z,52.21
